Time;durP1;ratioP1;P1;durP2;ratioP2;P2;SDS_P1;SDS_P2;PMS_P1;PMS_P2;Temp;Humidity;BMP_temperature;BMP_pressure;BME280_temperature;BME280_humidity;BME280_pressure;Samples;Min_cycle;Max_cycle;Signal;HPM_P1;HPM_P2
2021/03/23 00:00:57;;;;;;;3.45;1.98;;;2.10;99.90;;;;;;4695266;30;20436;-76
2021/03/23 00:03:34;;;;;;;2.88;2.40;;;2.20;99.90;;;;;;4694628;30;20427;-76
2021/03/23 00:06:00;;;;;;;3.58;2.40;;;2.20;99.90;;;;;;4695539;30;20489;-81
2021/03/23 00:08:29;;;;;;;2.67;1.95;;;2.30;99.90;;;;;;4710432;30;20424;-83
2021/03/23 00:10:59;;;;;;;2.78;2.20;;;2.30;99.90;;;;;;4710412;30;20437;-80
2021/03/23 00:13:25;;;;;;;3.60;2.20;;;2.40;99.90;;;;;;4689038;30;20415;-79
2021/03/23 00:15:51;;;;;;;3.53;2.10;;;2.40;99.90;;;;;;4685493;30;20509;-78
2021/03/23 00:18:17;;;;;;;4.13;2.40;;;2.50;99.90;;;;;;4705012;30;20435;-79
2021/03/23 00:20:43;;;;;;;3.22;2.28;;;2.50;99.90;;;;;;4692121;30;20497;-79
2021/03/23 00:23:08;;;;;;;3.22;2.10;;;2.50;99.90;;;;;;4694292;30;20458;-78
2021/03/23 00:25:34;;;;;;;2.27;2.07;;;2.50;99.90;;;;;;4711940;30;20424;-78
2021/03/23 00:28:01;;;;;;;2.92;2.00;;;2.50;99.90;;;;;;4712127;30;20788;-80
2021/03/23 00:30:26;;;;;;;2.85;1.98;;;2.50;99.90;;;;;;4703154;30;20949;-76
2021/03/23 00:32:52;;;;;;;3.03;2.08;;;2.60;99.90;;;;;;4682183;30;20509;-77
2021/03/23 00:35:18;;;;;;;3.70;2.27;;;2.60;99.90;;;;;;4703050;30;20416;-77
2021/03/23 00:37:44;;;;;;;3.15;1.90;;;2.60;99.90;;;;;;4707608;30;20798;-78
2021/03/23 00:40:13;;;;;;;4.78;2.10;;;2.80;99.90;;;;;;4702100;30;20414;-76
2021/03/23 00:42:39;;;;;;;4.00;2.47;;;2.70;99.90;;;;;;4705243;30;20961;-78
2021/03/23 00:45:05;;;;;;;3.00;2.50;;;2.70;99.90;;;;;;4698234;30;20460;-79
2021/03/23 00:47:31;;;;;;;3.47;2.10;;;2.70;99.90;;;;;;4684633;30;20423;-78
2021/03/23 00:49:57;;;;;;;2.53;1.83;;;2.80;99.90;;;;;;4695765;30;20415;-78
2021/03/23 00:52:23;;;;;;;2.13;1.93;;;2.80;99.90;;;;;;4711390;30;20517;-77
2021/03/23 00:54:52;;;;;;;3.53;2.10;;;2.80;99.90;;;;;;4687277;30;20429;-77
2021/03/23 00:57:18;;;;;;;2.70;2.00;;;2.80;99.90;;;;;;4724735;30;20548;-79
2021/03/23 00:59:44;;;;;;;2.67;1.90;;;2.90;99.90;;;;;;4700892;30;20440;-80
2021/03/23 01:02:10;;;;;;;4.07;2.30;;;2.90;99.90;;;;;;4678358;30;20428;-79
2021/03/23 01:04:36;;;;;;;2.17;1.97;;;2.90;99.90;;;;;;4676736;30;20462;-79
2021/03/23 01:07:02;;;;;;;3.58;1.98;;;2.90;99.90;;;;;;4694691;30;25125;-79
2021/03/23 01:09:28;;;;;;;3.13;2.08;;;2.80;99.90;;;;;;4684739;30;20444;-78
2021/03/23 01:11:53;;;;;;;2.75;2.17;;;2.90;99.90;;;;;;4703993;30;20444;-80
2021/03/23 01:14:20;;;;;;;2.08;1.92;;;2.90;99.90;;;;;;4689745;30;20416;-79
2021/03/23 01:16:45;;;;;;;2.70;2.10;;;2.90;99.90;;;;;;4703112;30;20420;-77
2021/03/23 01:19:11;;;;;;;3.30;2.03;;;2.90;99.90;;;;;;4688905;30;20420;-78
2021/03/23 01:21:37;;;;;;;2.08;1.88;;;2.90;99.90;;;;;;4690591;30;20522;-79
2021/03/23 01:24:03;;;;;;;3.53;2.35;;;2.90;99.90;;;;;;4698223;30;20453;-79
2021/03/23 01:26:29;;;;;;;2.80;2.10;;;3.00;99.90;;;;;;4689965;30;20458;-79
2021/03/23 01:28:55;;;;;;;2.53;2.17;;;3.00;99.90;;;;;;4673099;30;20429;-79
2021/03/23 01:31:20;;;;;;;2.13;1.93;;;3.00;99.90;;;;;;4694546;30;20466;-82
2021/03/23 01:33:46;;;;;;;3.83;1.98;;;3.00;99.90;;;;;;4705917;30;20443;-79
2021/03/23 01:36:12;;;;;;;2.60;1.98;;;3.00;99.90;;;;;;4693022;30;20787;-80
2021/03/23 01:38:37;;;;;;;3.47;2.20;;;3.10;99.90;;;;;;4712275;30;20424;-77
2021/03/23 01:41:03;;;;;;;2.57;2.27;;;3.10;99.90;;;;;;4692188;30;20432;-78
2021/03/23 01:43:35;;;;;;;2.65;2.00;;;3.20;99.90;;;;;;4689993;30;20427;-80
2021/03/23 01:46:02;;;;;;;2.50;2.20;;;3.10;99.90;;;;;;4675596;30;20493;-80
2021/03/23 01:48:35;;;;;;;4.10;2.00;;;3.10;99.90;;;;;;4692313;30;20428;-79
2021/03/23 01:51:05;;;;;;;2.60;2.00;;;3.20;99.90;;;;;;4706502;30;20489;-80
2021/03/23 01:53:37;;;;;;;2.28;2.00;;;3.20;99.90;;;;;;4714565;30;20428;-81
2021/03/23 01:56:05;;;;;;;2.55;2.35;;;3.20;99.90;;;;;;4710108;30;20904;-79
2021/03/23 01:58:30;;;;;;;5.10;2.53;;;3.20;99.90;;;;;;4708470;30;20452;-79
2021/03/23 02:00:56;;;;;;;3.27;2.40;;;3.20;99.90;;;;;;4678683;30;20428;-78
2021/03/23 02:03:22;;;;;;;3.97;2.30;;;3.40;99.90;;;;;;4679457;30;20416;-80
2021/03/23 02:05:55;;;;;;;2.70;2.15;;;3.20;99.90;;;;;;4682671;30;20431;-80
2021/03/23 02:08:20;;;;;;;2.00;1.90;;;3.30;99.90;;;;;;4694232;30;20424;-80
2021/03/23 02:10:46;;;;;;;2.50;2.10;;;3.30;99.90;;;;;;4683716;30;20447;-77
2021/03/23 02:13:12;;;;;;;3.33;2.13;;;3.30;99.90;;;;;;4699231;30;20424;-81
2021/03/23 02:15:38;;;;;;;3.70;2.07;;;3.30;99.90;;;;;;4689255;30;20430;-78
2021/03/23 02:18:13;;;;;;;3.40;2.30;;;3.30;99.90;;;;;;4702731;30;20458;-80
2021/03/23 02:20:56;;;;;;;3.28;2.38;;;3.30;99.90;;;;;;4719725;30;20462;-79
2021/03/23 02:23:26;;;;;;;2.30;1.90;;;3.30;99.90;;;;;;4682078;30;20843;-79
2021/03/23 02:25:51;;;;;;;5.07;2.45;;;3.30;99.90;;;;;;4715498;30;20508;-79
2021/03/23 02:28:18;;;;;;;2.35;2.03;;;3.30;99.90;;;;;;4700710;30;20849;-79
2021/03/23 02:30:44;;;;;;;2.58;2.35;;;3.40;99.90;;;;;;4665764;30;20438;-80
2021/03/23 02:33:10;;;;;;;4.17;2.30;;;3.40;99.90;;;;;;4701995;30;20527;-82
2021/03/23 02:35:36;;;;;;;3.07;2.40;;;3.40;99.90;;;;;;4707122;30;20430;-82
2021/03/23 02:38:02;;;;;;;3.00;2.60;;;3.40;99.90;;;;;;4721512;30;20429;-80
2021/03/23 02:40:28;;;;;;;2.20;2.00;;;3.40;99.90;;;;;;4719913;30;20809;-80
2021/03/23 02:42:54;;;;;;;2.20;2.00;;;3.40;99.90;;;;;;4699266;30;20511;-78
2021/03/23 02:45:20;;;;;;;2.22;2.03;;;3.50;99.90;;;;;;4700742;30;20436;-80
2021/03/23 02:47:46;;;;;;;3.70;2.60;;;3.50;99.90;;;;;;4686165;30;20427;-79
2021/03/23 02:50:12;;;;;;;3.40;2.40;;;3.50;99.90;;;;;;4683393;30;20433;-78
2021/03/23 02:52:38;;;;;;;2.33;2.13;;;3.50;99.90;;;;;;4709339;30;20908;-79
2021/03/23 02:55:05;;;;;;;3.10;2.00;;;3.60;99.90;;;;;;4692882;30;20428;-79
2021/03/23 02:57:30;;;;;;;3.40;2.50;;;3.60;99.90;;;;;;4671072;30;20459;-79
2021/03/23 02:59:56;;;;;;;2.00;1.90;;;3.60;99.90;;;;;;4705740;30;20870;-78
2021/03/23 03:02:22;;;;;;;3.05;2.15;;;3.60;99.90;;;;;;4704277;30;20946;-78
2021/03/23 03:04:48;;;;;;;2.30;2.10;;;3.60;99.90;;;;;;4698402;30;20492;-81
2021/03/23 03:07:13;;;;;;;5.00;2.40;;;3.60;99.90;;;;;;4685903;30;20454;-79
2021/03/23 03:09:39;;;;;;;2.58;2.10;;;3.60;99.90;;;;;;4701093;30;20411;-78
2021/03/23 03:12:06;;;;;;;2.47;2.20;;;3.80;99.90;;;;;;4701070;30;20428;-81
2021/03/23 03:14:31;;;;;;;2.65;2.28;;;3.60;99.90;;;;;;4648801;30;20420;-79
2021/03/23 03:16:57;;;;;;;2.88;2.38;;;3.60;99.90;;;;;;4686205;30;20431;-79
2021/03/23 03:19:23;;;;;;;2.83;2.42;;;3.70;99.90;;;;;;4670749;30;20954;-79
2021/03/23 03:21:48;;;;;;;3.37;2.20;;;3.70;99.90;;;;;;4701173;30;20564;-80
2021/03/23 03:24:14;;;;;;;3.35;2.28;;;3.70;99.90;;;;;;4717156;30;20508;-83
2021/03/23 03:26:40;;;;;;;3.22;2.22;;;3.70;99.90;;;;;;4689722;30;20420;-82
2021/03/23 03:29:06;;;;;;;3.28;2.15;;;3.70;99.90;;;;;;4689363;30;21201;-78
2021/03/23 03:31:32;;;;;;;2.50;2.23;;;3.70;99.90;;;;;;4698070;30;21021;-78
2021/03/23 03:33:58;;;;;;;2.80;2.30;;;3.80;99.90;;;;;;4701980;30;20411;-79
2021/03/23 03:36:25;;;;;;;4.20;2.30;;;3.80;99.90;;;;;;4687122;30;20479;-80
2021/03/23 03:38:51;;;;;;;2.72;2.08;;;3.80;99.90;;;;;;4671748;30;20431;-79
2021/03/23 03:41:17;;;;;;;2.60;2.35;;;3.80;99.90;;;;;;4714322;30;20424;-81
2021/03/23 03:43:42;;;;;;;2.83;2.30;;;3.80;99.90;;;;;;4714406;30;20428;-79
2021/03/23 03:46:08;;;;;;;4.63;2.57;;;3.80;99.90;;;;;;4726353;30;20422;-78
2021/03/23 03:48:34;;;;;;;2.80;2.15;;;3.90;99.90;;;;;;4687205;30;20488;-78
2021/03/23 03:51:00;;;;;;;3.55;2.28;;;3.90;99.90;;;;;;4686110;30;20444;-78
2021/03/23 03:53:25;;;;;;;3.20;2.45;;;3.80;99.90;;;;;;4684594;30;20412;-78
2021/03/23 03:55:52;;;;;;;3.43;2.63;;;3.90;99.90;;;;;;4658520;30;20496;-78
2021/03/23 03:58:18;;;;;;;2.72;2.15;;;3.80;99.90;;;;;;4711027;30;20441;-80
2021/03/23 04:00:43;;;;;;;2.25;2.00;;;3.90;99.90;;;;;;4706004;30;20793;-81
2021/03/23 04:03:18;;;;;;;2.72;2.08;;;4.10;99.90;;;;;;4690056;30;23378;-81
2021/03/23 04:05:45;;;;;;;2.97;2.30;;;3.90;99.90;;;;;;4681188;30;20455;-81
2021/03/23 04:08:12;;;;;;;3.55;2.30;;;4.00;99.90;;;;;;4701816;30;20494;-79
2021/03/23 04:10:39;;;;;;;2.97;2.60;;;4.00;99.90;;;;;;4700369;30;20447;-78
2021/03/23 04:13:04;;;;;;;3.20;2.33;;;4.10;99.90;;;;;;4719722;30;20412;-82
2021/03/23 04:15:38;;;;;;;4.00;2.30;;;4.00;99.90;;;;;;4688650;30;20838;-79
2021/03/23 04:18:04;;;;;;;3.22;2.55;;;4.00;99.90;;;;;;4687537;30;20412;-80
2021/03/23 04:20:30;;;;;;;2.90;2.17;;;4.10;99.90;;;;;;4666742;30;20455;-81
2021/03/23 04:22:56;;;;;;;2.63;2.20;;;4.10;99.90;;;;;;4685643;30;20447;-81
2021/03/23 04:25:25;;;;;;;2.63;2.23;;;4.20;99.90;;;;;;4684136;30;20426;-80
2021/03/23 04:27:51;;;;;;;2.47;2.28;;;4.10;99.90;;;;;;4684476;30;20477;-79
2021/03/23 04:30:17;;;;;;;2.67;2.47;;;4.20;99.90;;;;;;4670549;30;21009;-78
2021/03/23 04:32:43;;;;;;;2.97;2.70;;;4.20;99.90;;;;;;4710982;30;20937;-80
2021/03/23 04:35:11;;;;;;;3.63;2.58;;;4.20;99.90;;;;;;4689702;30;20438;-78
2021/03/23 04:37:37;;;;;;;2.40;2.20;;;4.20;99.90;;;;;;4682672;30;20424;-81
2021/03/23 04:40:03;;;;;;;2.70;2.50;;;4.20;99.90;;;;;;4682335;30;20427;-78
2021/03/23 04:42:29;;;;;;;2.63;2.43;;;4.30;99.90;;;;;;4683924;30;20432;-80
2021/03/23 04:44:55;;;;;;;3.00;2.70;;;4.30;99.90;;;;;;4691363;30;20786;-79
2021/03/23 04:47:20;;;;;;;2.90;2.60;;;4.20;99.90;;;;;;4677102;30;20446;-79
2021/03/23 04:49:46;;;;;;;3.30;2.90;;;4.20;99.90;;;;;;4663516;30;20425;-81
2021/03/23 04:52:12;;;;;;;3.70;2.97;;;4.20;99.90;;;;;;4721838;30;20449;-81
2021/03/23 04:54:38;;;;;;;4.17;2.47;;;4.20;99.90;;;;;;4687910;30;20498;-76
2021/03/23 04:57:04;;;;;;;3.92;3.00;;;4.20;99.90;;;;;;4701847;30;20435;-80
2021/03/23 04:59:29;;;;;;;3.05;2.75;;;4.20;99.90;;;;;;4673767;30;20989;-83
2021/03/23 05:01:55;;;;;;;3.00;2.80;;;4.20;99.90;;;;;;4705893;30;20440;-82
2021/03/23 05:04:21;;;;;;;3.10;2.80;;;4.20;99.90;;;;;;4671645;30;20417;-82
2021/03/23 05:06:47;;;;;;;2.97;2.67;;;4.20;99.90;;;;;;4710840;30;20495;-81
2021/03/23 05:09:12;;;;;;;3.23;2.90;;;4.20;99.90;;;;;;4705058;30;20443;-78
2021/03/23 05:11:38;;;;;;;3.28;2.80;;;4.20;99.90;;;;;;4700555;30;20465;-78
2021/03/23 05:14:05;;;;;;;3.55;3.25;;;4.20;99.90;;;;;;4672568;30;20424;-78
2021/03/23 05:16:31;;;;;;;3.40;2.85;;;4.20;99.90;;;;;;4676960;30;20500;-78
2021/03/23 05:18:57;;;;;;;3.50;3.00;;;4.20;99.90;;;;;;4713508;30;20926;-78
2021/03/23 05:21:22;;;;;;;3.17;2.93;;;4.30;99.90;;;;;;4683974;30;20524;-78
2021/03/23 05:23:49;;;;;;;3.27;2.87;;;4.30;99.90;;;;;;4670590;30;20433;-78
2021/03/23 05:26:15;;;;;;;3.42;3.13;;;4.30;99.90;;;;;;4700846;30;20930;-77
2021/03/23 05:28:47;;;;;;;3.20;2.90;;;4.30;99.90;;;;;;4702738;30;21449;-77
2021/03/23 05:31:13;;;;;;;2.85;2.65;;;4.40;99.90;;;;;;4698637;30;20594;-77
2021/03/23 05:33:39;;;;;;;3.13;2.83;;;4.30;99.90;;;;;;4705603;30;21284;-78
2021/03/23 05:36:05;;;;;;;3.17;2.87;;;4.40;99.90;;;;;;4684668;30;20534;-79
2021/03/23 05:38:31;;;;;;;4.20;3.10;;;4.40;99.90;;;;;;4681854;30;20409;-77
2021/03/23 05:41:08;;;;;;;3.43;3.10;;;4.40;99.90;;;;;;4697791;30;20505;-77
2021/03/23 05:43:45;;;;;;;2.63;2.42;;;4.40;99.90;;;;;;4686279;30;20501;-78
2021/03/23 05:46:25;;;;;;;3.78;3.15;;;4.50;99.90;;;;;;4682658;30;20799;-78
2021/03/23 05:49:13;;;;;;;4.22;2.78;;;4.50;99.90;;;;;;4689667;30;20423;-80
2021/03/23 05:51:41;;;;;;;3.38;3.08;;;4.40;99.90;;;;;;4704816;30;20449;-77
2021/03/23 05:54:17;;;;;;;3.10;2.80;;;4.50;99.90;;;;;;4693922;30;20440;-77
2021/03/23 05:56:43;;;;;;;3.70;2.90;;;4.50;99.90;;;;;;4692421;30;20478;-78
2021/03/23 05:59:16;;;;;;;3.60;2.83;;;4.50;99.90;;;;;;4711937;30;20440;-77
2021/03/23 06:01:54;;;;;;;3.65;2.67;;;4.50;99.90;;;;;;4683390;30;20442;-78
2021/03/23 06:04:46;;;;;;;2.92;2.70;;;4.60;99.90;;;;;;4671063;30;21676;-81
2021/03/23 06:07:13;;;;;;;3.55;3.10;;;4.60;99.90;;;;;;4700508;30;20772;-78
2021/03/23 06:09:39;;;;;;;3.00;2.70;;;4.60;99.90;;;;;;4684712;30;20432;-77
2021/03/23 06:12:17;;;;;;;3.13;2.63;;;4.70;99.90;;;;;;4700205;30;20432;-78
2021/03/23 06:14:50;;;;;;;2.95;2.58;;;4.70;99.90;;;;;;4700376;30;20647;-76
2021/03/23 06:17:31;;;;;;;2.70;2.50;;;4.70;99.90;;;;;;4697802;30;20505;-79
2021/03/23 06:20:19;;;;;;;4.25;2.70;;;4.70;99.90;;;;;;4686322;30;20570;-77
2021/03/23 06:23:06;;;;;;;2.53;2.33;;;4.70;99.90;;;;;;4696370;30;20837;-77
2021/03/23 06:25:32;;;;;;;3.08;2.78;;;4.70;99.90;;;;;;4709813;30;20451;-77
2021/03/23 06:28:15;;;;;;;3.42;2.53;;;4.70;99.90;;;;;;4712470;30;21025;-77
2021/03/23 06:30:58;;;;;;;3.13;2.42;;;4.80;99.90;;;;;;4701519;30;21570;-77
2021/03/23 06:33:25;;;;;;;2.90;2.58;;;4.80;99.90;;;;;;4682612;30;20980;-77
2021/03/23 06:35:56;;;;;;;2.87;2.63;;;4.80;99.90;;;;;;4698677;30;20432;-77
2021/03/23 06:38:22;;;;;;;2.67;2.47;;;4.80;99.90;;;;;;4682053;30;20452;-77
2021/03/23 06:41:12;;;;;;;2.57;2.37;;;4.80;99.90;;;;;;4700712;30;20429;-77
2021/03/23 06:43:39;;;;;;;2.58;2.38;;;4.90;99.90;;;;;;4719381;30;20472;-79
2021/03/23 06:46:38;;;;;;;3.38;2.50;;;5.00;99.90;;;;;;4701637;30;20434;-79
2021/03/23 06:49:03;;;;;;;3.50;2.85;;;5.00;99.90;;;;;;4684439;30;20930;-77
2021/03/23 06:51:29;;;;;;;2.40;2.20;;;5.00;99.90;;;;;;4710262;30;20475;-79
2021/03/23 06:53:56;;;;;;;3.17;2.17;;;5.00;99.90;;;;;;4662238;30;20458;-77
2021/03/23 06:56:24;;;;;;;4.00;2.25;;;5.00;99.90;;;;;;4697590;30;20423;-76
2021/03/23 06:59:13;;;;;;;3.10;2.00;;;5.10;99.90;;;;;;4683839;30;20499;-80
2021/03/23 07:01:41;;;;;;;3.85;2.35;;;5.10;99.90;;;;;;4683542;30;20861;-79
2021/03/23 07:04:25;;;;;;;2.58;2.38;;;5.10;99.90;;;;;;4672114;30;20493;-77
2021/03/23 07:07:06;;;;;;;2.92;2.30;;;5.10;99.90;;;;;;4696512;30;20806;-76
2021/03/23 07:09:31;;;;;;;3.00;2.20;;;5.10;99.90;;;;;;4713859;30;20479;-77
2021/03/23 07:12:03;;;;;;;2.37;2.17;;;5.10;99.90;;;;;;4698275;30;20562;-78
2021/03/23 07:14:34;;;;;;;2.10;1.90;;;5.10;99.90;;;;;;4698319;30;20431;-77
2021/03/23 07:17:09;;;;;;;1.90;1.80;;;5.10;99.90;;;;;;4695855;30;20425;-78
2021/03/23 07:19:44;;;;;;;2.17;1.97;;;5.10;99.90;;;;;;4715318;30;20433;-76
2021/03/23 07:22:33;;;;;;;1.90;1.80;;;5.10;99.90;;;;;;4719821;30;20447;-76
2021/03/23 07:25:00;;;;;;;2.00;1.90;;;5.10;99.90;;;;;;4695026;30;20529;-79
2021/03/23 07:27:28;;;;;;;2.28;2.08;;;5.10;99.90;;;;;;4716157;30;20517;-77
2021/03/23 07:30:28;;;;;;;2.33;2.13;;;5.10;99.90;;;;;;4702247;30;20438;-80
2021/03/23 07:32:57;;;;;;;1.97;1.83;;;5.10;99.90;;;;;;4710027;30;20422;-76
2021/03/23 07:35:32;;;;;;;3.00;2.20;;;5.20;99.90;;;;;;4687423;30;20485;-75
2021/03/23 07:37:58;;;;;;;4.32;2.40;;;5.20;99.90;;;;;;4681880;30;20422;-81
2021/03/23 07:40:31;;;;;;;2.20;2.00;;;5.30;99.90;;;;;;4703763;30;20432;-77
2021/03/23 07:43:16;;;;;;;3.00;2.13;;;5.40;99.90;;;;;;4706111;30;20412;-76
2021/03/23 07:46:02;;;;;;;2.45;2.00;;;5.30;99.90;;;;;;4706979;30;20485;-75
2021/03/23 07:48:48;;;;;;;1.88;1.77;;;5.30;99.90;;;;;;4696524;30;20424;-77
2021/03/23 07:51:33;;;;;;;2.30;2.10;;;5.30;99.90;;;;;;4699507;30;20436;-75
2021/03/23 07:54:29;;;;;;;2.08;1.90;;;5.30;99.90;;;;;;4700535;30;20448;-77
2021/03/23 07:56:55;;;;;;;3.17;1.90;;;5.30;99.90;;;;;;4687120;30;20424;-77
2021/03/23 07:59:49;;;;;;;1.97;1.80;;;5.50;99.90;;;;;;4698702;30;20536;-77
2021/03/23 08:02:58;;;;;;;1.80;1.67;;;5.40;99.90;;;;;;4695537;30;20427;-77
2021/03/23 08:05:36;;;;;;;2.35;1.90;;;5.40;99.90;;;;;;4705323;30;20934;-77
2021/03/23 08:08:17;;;;;;;3.22;2.20;;;5.40;99.90;;;;;;4711053;30;20451;-78
2021/03/23 08:11:04;;;;;;;1.85;1.75;;;5.40;99.90;;;;;;4711812;30;20434;-78
2021/03/23 08:13:50;;;;;;;2.00;1.80;;;5.50;99.90;;;;;;4712030;30;20435;-76
2021/03/23 08:16:27;;;;;;;1.90;1.80;;;5.50;99.90;;;;;;4712329;30;20554;-77
2021/03/23 08:19:16;;;;;;;1.80;1.70;;;5.60;99.90;;;;;;4695387;30;20425;-76
2021/03/23 08:22:13;;;;;;;2.00;1.80;;;5.70;99.90;;;;;;4714467;30;20528;-79
2021/03/23 08:24:56;;;;;;;4.18;3.78;;;5.60;99.90;;;;;;4712909;30;20431;-77
2021/03/23 08:27:28;;;;;;;5.22;2.72;;;5.70;99.90;;;;;;4699023;30;20417;-77
2021/03/23 08:30:20;;;;;;;2.53;1.80;;;5.70;99.90;;;;;;4709324;30;20452;-77
2021/03/23 08:33:27;;;;;;;2.13;1.90;;;5.80;99.90;;;;;;4714835;30;20440;-79
2021/03/23 08:36:24;;;;;;;1.40;1.30;;;5.80;99.90;;;;;;4647887;30;20435;-77
2021/03/23 08:38:59;;;;;;;1.70;1.60;;;5.90;99.90;;;;;;4690581;30;20499;-74
2021/03/23 08:41:40;;;;;;;1.85;1.75;;;5.90;99.90;;;;;;4690714;30;20444;-79
2021/03/23 08:44:09;;;;;;;1.85;1.58;;;6.00;99.90;;;;;;4711769;30;20428;-76
2021/03/23 08:46:35;;;;;;;1.90;1.60;;;6.10;99.90;;;;;;4704280;30;21190;-77
2021/03/23 08:49:16;;;;;;;1.58;1.48;;;6.20;99.90;;;;;;4695378;30;20449;-76
2021/03/23 08:51:49;;;;;;;1.70;1.60;;;6.20;99.90;;;;;;4701532;30;20438;-76
2021/03/23 08:54:54;;;;;;;2.77;1.90;;;6.30;99.90;;;;;;4683487;30;20505;-77
2021/03/23 08:57:20;;;;;;;1.75;1.65;;;6.30;99.90;;;;;;4632271;30;20515;-78
2021/03/23 08:59:49;;;;;;;1.60;1.50;;;6.30;99.90;;;;;;4629240;30;20581;-77
2021/03/23 09:02:14;;;;;;;1.60;1.50;;;6.20;99.90;;;;;;4664749;30;20511;-79
2021/03/23 09:04:55;;;;;;;1.70;1.60;;;6.20;99.90;;;;;;4716365;30;20514;-76
2021/03/23 09:07:23;;;;;;;2.13;1.92;;;6.20;99.90;;;;;;4694752;30;20432;-77
2021/03/23 09:09:50;;;;;;;2.03;1.90;;;6.20;99.90;;;;;;4697483;30;20440;-78
2021/03/23 09:12:52;;;;;;;2.00;1.80;;;6.30;99.90;;;;;;4697620;30;20620;-77
2021/03/23 09:15:24;;;;;;;1.80;1.70;;;6.30;99.90;;;;;;4700699;30;20482;-77
2021/03/23 09:18:14;;;;;;;1.83;1.65;;;6.30;99.90;;;;;;4695424;30;20416;-77
2021/03/23 09:20:41;;;;;;;1.80;1.70;;;6.40;99.90;;;;;;4697157;30;20498;-78
2021/03/23 09:23:24;;;;;;;1.80;1.70;;;6.40;99.90;;;;;;4709626;30;20463;-79
2021/03/23 09:25:54;;;;;;;1.90;1.80;;;6.50;99.90;;;;;;4697950;30;20462;-76
2021/03/23 09:28:29;;;;;;;1.63;1.52;;;6.60;99.90;;;;;;4682705;30;20440;-78
2021/03/23 09:31:21;;;;;;;1.70;1.60;;;6.60;99.90;;;;;;4701864;30;20448;-78
2021/03/23 09:33:48;;;;;;;1.70;1.60;;;6.60;99.90;;;;;;4696577;30;20455;-77
2021/03/23 09:36:15;;;;;;;1.65;1.55;;;6.60;99.90;;;;;;4699257;30;20411;-76
2021/03/23 09:38:46;;;;;;;1.85;1.70;;;6.60;99.90;;;;;;4696231;30;20416;-76
2021/03/23 09:41:20;;;;;;;2.17;1.98;;;6.60;99.90;;;;;;4711564;30;20442;-77
2021/03/23 09:44:05;;;;;;;1.60;1.50;;;6.70;99.90;;;;;;4714068;30;20789;-76
2021/03/23 09:46:36;;;;;;;1.85;1.75;;;6.60;99.90;;;;;;4700141;30;20471;-77
2021/03/23 09:49:23;;;;;;;1.70;1.60;;;6.70;99.90;;;;;;4711249;30;20427;-77
2021/03/23 09:52:00;;;;;;;2.30;2.10;;;6.70;99.90;;;;;;4699428;30;20444;-76
2021/03/23 09:54:31;;;;;;;2.00;1.80;;;6.60;99.90;;;;;;4704222;30;20436;-75
2021/03/23 09:57:02;;;;;;;1.88;1.77;;;6.60;99.90;;;;;;4667708;30;20425;-74
2021/03/23 09:59:30;;;;;;;1.90;1.80;;;6.60;99.90;;;;;;4696860;30;20519;-76
2021/03/23 10:02:29;;;;;;;1.75;1.65;;;6.70;99.90;;;;;;4692865;30;20445;-74
2021/03/23 10:04:55;;;;;;;2.40;2.20;;;6.70;99.90;;;;;;4706534;30;20432;-73
2021/03/23 10:07:30;;;;;;;2.60;1.87;;;6.80;99.90;;;;;;4680189;30;20435;-74
2021/03/23 10:10:12;;;;;;;2.38;1.90;;;6.90;99.90;;;;;;4707171;30;20441;-74
2021/03/23 10:12:38;;;;;;;2.23;2.00;;;7.00;99.90;;;;;;4680318;30;20440;-74
2021/03/23 10:15:31;;;;;;;1.97;1.77;;;7.10;99.90;;;;;;4684125;30;20455;-74
2021/03/23 10:18:16;;;;;;;1.58;1.48;;;7.00;99.90;;;;;;4680886;30;20420;-74
2021/03/23 10:20:43;;;;;;;1.83;1.73;;;7.00;99.90;;;;;;4690063;30;20453;-74
2021/03/23 10:23:09;;;;;;;1.80;1.70;;;7.00;99.90;;;;;;4709692;30;20513;-75
2021/03/23 10:25:34;;;;;;;1.65;1.55;;;7.00;99.90;;;;;;4701190;30;21085;-75
2021/03/23 10:28:02;;;;;;;1.60;1.50;;;7.20;99.90;;;;;;4697713;30;20513;-76
2021/03/23 10:30:28;;;;;;;2.08;1.70;;;7.20;99.90;;;;;;4676056;30;20511;-76
2021/03/23 10:32:58;;;;;;;2.08;1.88;;;7.20;99.90;;;;;;4721152;30;20628;-76
2021/03/23 10:35:48;;;;;;;1.63;1.52;;;7.20;99.90;;;;;;4694622;30;20436;-76
2021/03/23 10:38:17;;;;;;;1.85;1.75;;;7.30;99.90;;;;;;4695356;30;20438;-76
2021/03/23 10:40:51;;;;;;;1.70;1.60;;;7.30;99.90;;;;;;4709960;30;20459;-76
2021/03/23 10:43:33;;;;;;;1.60;1.50;;;7.30;99.90;;;;;;4701760;30;20419;-77
2021/03/23 10:46:00;;;;;;;2.20;1.70;;;7.30;99.90;;;;;;4693581;30;20496;-76
2021/03/23 10:48:37;;;;;;;1.50;1.40;;;7.30;99.90;;;;;;4681845;30;20501;-76
2021/03/23 10:51:24;;;;;;;2.70;1.80;;;7.40;99.90;;;;;;4672997;30;20993;-80
2021/03/23 10:54:08;;;;;;;1.77;1.67;;;7.50;99.90;;;;;;4686822;30;20486;-78
2021/03/23 10:56:45;;;;;;;1.70;1.60;;;7.50;99.90;;;;;;4710293;30;20434;-77
2021/03/23 10:59:24;;;;;;;3.55;1.77;;;7.50;99.90;;;;;;4685425;30;20857;-77
2021/03/23 11:02:00;;;;;;;1.70;1.60;;;7.60;99.90;;;;;;4681306;30;20818;-77
2021/03/23 11:04:26;;;;;;;1.50;1.40;;;7.00;99.90;;;;;;4699497;30;20954;-78
2021/03/23 11:06:51;;;;;;;1.80;1.70;;;6.50;99.90;;;;;;4685647;30;20498;-76
2021/03/23 11:09:18;;;;;;;1.90;1.70;;;6.40;99.90;;;;;;4702474;30;21523;-75
2021/03/23 11:11:44;;;;;;;1.80;1.70;;;6.30;99.90;;;;;;4700381;30;20442;-76
2021/03/23 11:14:10;;;;;;;1.80;1.70;;;6.30;99.90;;;;;;4686024;30;20417;-75
2021/03/23 11:16:37;;;;;;;2.03;1.77;;;6.50;99.90;;;;;;4707042;30;20424;-77
2021/03/23 11:19:06;;;;;;;1.80;1.70;;;6.50;99.90;;;;;;4694799;30;20424;-76
2021/03/23 11:21:35;;;;;;;1.95;1.83;;;6.50;99.90;;;;;;4693478;30;20436;-75
2021/03/23 11:24:01;;;;;;;1.63;1.52;;;6.60;99.90;;;;;;4691552;30;20820;-76
2021/03/23 11:26:30;;;;;;;1.65;1.50;;;6.70;99.90;;;;;;4686146;30;20431;-76
2021/03/23 11:28:58;;;;;;;1.77;1.67;;;6.80;99.90;;;;;;4681884;30;20436;-75
2021/03/23 11:31:26;;;;;;;1.70;1.60;;;6.90;99.90;;;;;;4708651;30;20520;-76
2021/03/23 11:33:52;;;;;;;2.03;1.92;;;6.90;99.90;;;;;;4681119;30;20513;-76
2021/03/23 11:36:19;;;;;;;2.53;2.33;;;7.00;99.90;;;;;;4680663;30;20729;-77
2021/03/23 11:38:44;;;;;;;2.20;2.00;;;7.10;99.90;;;;;;4709165;30;20458;-76
2021/03/23 11:41:33;;;;;;;2.10;1.90;;;7.20;99.90;;;;;;4696240;30;20487;-76
2021/03/23 11:44:01;;;;;;;2.42;2.20;;;7.40;99.90;;;;;;4698233;30;21033;-79
2021/03/23 11:46:59;;;;;;;2.20;2.00;;;7.50;99.90;;;;;;4683939;30;20529;-77
2021/03/23 11:49:35;;;;;;;3.17;2.15;;;7.40;99.90;;;;;;4688003;30;20937;-76
2021/03/23 11:52:01;;;;;;;2.13;2.00;;;7.50;99.90;;;;;;4698556;30;20436;-78
2021/03/23 11:54:27;;;;;;;2.30;2.10;;;7.60;99.90;;;;;;4695043;30;20439;-77
2021/03/23 11:56:53;;;;;;;2.43;2.20;;;7.70;99.90;;;;;;4684179;30;20947;-78
2021/03/23 11:59:19;;;;;;;2.17;2.08;;;7.80;99.90;;;;;;4671751;30;20427;-76
2021/03/23 12:01:45;;;;;;;2.13;1.90;;;7.90;99.90;;;;;;4670296;30;20428;-76
2021/03/23 12:04:12;;;;;;;2.25;2.00;;;7.70;99.90;;;;;;4713015;30;20501;-76
2021/03/23 12:06:54;;;;;;;2.65;1.98;;;7.60;99.90;;;;;;4654977;30;20432;-77
2021/03/23 12:09:57;;;;;;;2.38;1.90;;;7.40;99.90;;;;;;4686394;30;20419;-76
2021/03/23 12:12:52;;;;;;;1.85;1.75;;;7.50;99.90;;;;;;4604866;30;20516;-78
2021/03/23 12:15:23;;;;;;;1.80;1.70;;;7.50;99.90;;;;;;4696968;30;20525;-78
2021/03/23 12:17:51;;;;;;;1.83;1.70;;;7.40;99.90;;;;;;4687457;30;20455;-78
2021/03/23 12:20:21;;;;;;;2.40;2.20;;;7.40;99.90;;;;;;4700272;30;20508;-78
2021/03/23 12:22:47;;;;;;;2.85;1.80;;;7.40;99.90;;;;;;4711265;30;20431;-78
2021/03/23 12:25:14;;;;;;;1.60;1.50;;;7.40;99.90;;;;;;4700401;30;20431;-77
2021/03/23 12:27:40;;;;;;;1.50;1.40;;;7.40;99.90;;;;;;4683241;30;20439;-76
2021/03/23 12:30:07;;;;;;;1.67;1.58;;;7.40;99.90;;;;;;4688141;30;20476;-76
2021/03/23 12:32:33;;;;;;;1.75;1.63;;;7.50;99.90;;;;;;4668360;30;20479;-76
2021/03/23 12:34:59;;;;;;;2.38;1.50;;;7.50;99.90;;;;;;4691446;30;20517;-76
2021/03/23 12:37:25;;;;;;;1.92;1.83;;;7.40;99.90;;;;;;4682542;30;20520;-76
2021/03/23 12:39:54;;;;;;;2.03;1.67;;;7.30;99.90;;;;;;4678573;30;20455;-76
2021/03/23 12:42:21;;;;;;;1.63;1.50;;;7.30;99.90;;;;;;4673924;30;20428;-76
2021/03/23 12:44:47;;;;;;;1.58;1.48;;;7.20;99.90;;;;;;4686823;30;20496;-76
2021/03/23 12:47:13;;;;;;;1.77;1.67;;;7.20;99.90;;;;;;4656067;30;20441;-76
2021/03/23 12:49:39;;;;;;;1.50;1.40;;;7.20;99.90;;;;;;4683314;30;21134;-76
2021/03/23 12:52:06;;;;;;;1.58;1.48;;;7.20;99.90;;;;;;4696399;30;20489;-76
2021/03/23 12:54:46;;;;;;;1.90;1.60;;;7.20;99.90;;;;;;4695961;30;20846;-78
2021/03/23 12:57:17;;;;;;;1.70;1.60;;;7.30;99.90;;;;;;4650352;30;20532;-78
2021/03/23 12:59:43;;;;;;;1.65;1.55;;;7.30;99.90;;;;;;4697101;30;20473;-76
2021/03/23 13:02:10;;;;;;;1.95;1.50;;;7.30;99.90;;;;;;4710962;30;20424;-75
2021/03/23 13:04:35;;;;;;;1.40;1.30;;;7.40;99.90;;;;;;4692355;30;20446;-76
2021/03/23 13:07:01;;;;;;;1.40;1.30;;;7.30;99.90;;;;;;4698701;30;20502;-76
2021/03/23 13:09:27;;;;;;;1.50;1.40;;;7.30;99.90;;;;;;4697972;30;20416;-77
2021/03/23 13:11:53;;;;;;;1.37;1.30;;;7.40;99.90;;;;;;4701194;30;20507;-76
2021/03/23 13:14:28;;;;;;;1.55;1.45;;;7.50;99.90;;;;;;4682479;30;20523;-77
2021/03/23 13:16:54;;;;;;;1.40;1.30;;;7.60;99.90;;;;;;4682245;30;20436;-76
2021/03/23 13:19:21;;;;;;;1.75;1.42;;;7.70;99.90;;;;;;4671572;30;20434;-76